sensor_id;sensor_type;location;lat;lon;timestamp;pressure;altitude;pressure_sealevel;temperature;humidity
21240;BME280;10778;48.962;9.018;2023-02-10T00:00:06;101020.34;;;-6.18;100.00
21240;BME280;10778;48.962;9.018;2023-02-10T00:02:32;101025.34;;;-6.30;100.00
21240;BME280;10778;48.962;9.018;2023-02-10T00:04:58;101031.22;;;-6.37;100.00
21240;BME280;10778;48.962;9.018;2023-02-10T00:07:24;101030.28;;;-6.44;100.00
21240;BME280;10778;48.962;9.018;2023-02-10T00:09:50;101027.75;;;-6.43;100.00
21240;BME280;10778;48.962;9.018;2023-02-10T00:12:16;101023.47;;;-6.42;100.00
21240;BME280;10778;48.962;9.018;2023-02-10T00:14:42;101008.72;;;-6.65;100.00
21240;BME280;10778;48.962;9.018;2023-02-10T00:17:08;101016.34;;;-6.71;100.00
21240;BME280;10778;48.962;9.018;2023-02-10T00:19:34;101010.38;;;-6.70;100.00
21240;BME280;10778;48.962;9.018;2023-02-10T00:22:01;101016.38;;;-6.68;100.00
21240;BME280;10778;48.962;9.018;2023-02-10T00:24:28;101009.63;;;-6.60;100.00
21240;BME280;10778;48.962;9.018;2023-02-10T00:26:54;101008.84;;;-6.55;100.00
21240;BME280;10778;48.962;9.018;2023-02-10T00:29:20;101007.13;;;-6.55;100.00
21240;BME280;10778;48.962;9.018;2023-02-10T00:31:46;101013.94;;;-6.57;100.00
21240;BME280;10778;48.962;9.018;2023-02-10T00:34:14;101014.75;;;-6.60;100.00
21240;BME280;10778;48.962;9.018;2023-02-10T00:36:41;101036.91;;;-6.63;100.00
21240;BME280;10778;48.962;9.018;2023-02-10T00:39:12;101038.63;;;-6.61;100.00
21240;BME280;10778;48.962;9.018;2023-02-10T00:41:38;101043.59;;;-6.75;100.00
21240;BME280;10778;48.962;9.018;2023-02-10T00:47:27;101048.44;;;-6.95;100.00
21240;BME280;10778;48.962;9.018;2023-02-10T00:49:53;101052.66;;;-6.98;100.00
21240;BME280;10778;48.962;9.018;2023-02-10T00:52:21;101051.88;;;-6.94;100.00
21240;BME280;10778;48.962;9.018;2023-02-10T00:54:48;101036.41;;;-7.02;100.00
21240;BME280;10778;48.962;9.018;2023-02-10T00:57:14;101043.28;;;-7.00;100.00
21240;BME280;10778;48.962;9.018;2023-02-10T00:59:40;101038.16;;;-7.00;100.00
21240;BME280;10778;48.962;9.018;2023-02-10T01:02:06;101045.00;;;-6.98;100.00
21240;BME280;10778;48.962;9.018;2023-02-10T01:04:32;101041.56;;;-7.01;100.00
21240;BME280;10778;48.962;9.018;2023-02-10T01:06:58;101046.72;;;-6.97;100.00
21240;BME280;10778;48.962;9.018;2023-02-10T01:09:25;101045.81;;;-7.01;100.00
21240;BME280;10778;48.962;9.018;2023-02-10T01:11:51;101058.47;;;-7.09;100.00
21240;BME280;10778;48.962;9.018;2023-02-10T01:14:17;101051.56;;;-7.15;100.00
21240;BME280;10778;48.962;9.018;2023-02-10T01:16:43;101051.59;;;-7.13;100.00
21240;BME280;10778;48.962;9.018;2023-02-10T01:19:09;101061.06;;;-7.07;100.00
21240;BME280;10778;48.962;9.018;2023-02-10T01:21:35;101060.28;;;-7.03;100.00
21240;BME280;10778;48.962;9.018;2023-02-10T01:24:05;101065.47;;;-6.98;100.00
21240;BME280;10778;48.962;9.018;2023-02-10T01:26:32;101066.97;;;-7.13;100.00
21240;BME280;10778;48.962;9.018;2023-02-10T01:28:58;101060.00;;;-7.20;100.00
21240;BME280;10778;48.962;9.018;2023-02-10T01:31:24;101063.56;;;-7.12;100.00
21240;BME280;10778;48.962;9.018;2023-02-10T01:33:52;101060.88;;;-7.20;100.00
21240;BME280;10778;48.962;9.018;2023-02-10T01:36:20;101073.63;;;-7.21;100.00
21240;BME280;10778;48.962;9.018;2023-02-10T01:38:46;101062.56;;;-7.22;100.00
21240;BME280;10778;48.962;9.018;2023-02-10T01:41:15;101065.16;;;-7.19;100.00
21240;BME280;10778;48.962;9.018;2023-02-10T01:44:05;101067.72;;;-7.19;100.00
21240;BME280;10778;48.962;9.018;2023-02-10T01:46:33;101077.13;;;-7.18;100.00
21240;BME280;10778;48.962;9.018;2023-02-10T01:49:08;101072.88;;;-7.16;100.00
21240;BME280;10778;48.962;9.018;2023-02-10T01:52:16;101070.31;;;-7.16;100.00
21240;BME280;10778;48.962;9.018;2023-02-10T01:54:52;101071.16;;;-7.18;100.00
21240;BME280;10778;48.962;9.018;2023-02-10T01:57:20;101071.91;;;-7.24;100.00
21240;BME280;10778;48.962;9.018;2023-02-10T01:59:46;101082.03;;;-7.30;100.00
21240;BME280;10778;48.962;9.018;2023-02-10T02:02:13;101081.91;;;-7.38;100.00
21240;BME280;10778;48.962;9.018;2023-02-10T02:04:51;101075.81;;;-7.45;100.00
21240;BME280;10778;48.962;9.018;2023-02-10T02:07:21;101069.66;;;-7.59;100.00
21240;BME280;10778;48.962;9.018;2023-02-10T02:09:49;101077.25;;;-7.62;100.00
21240;BME280;10778;48.962;9.018;2023-02-10T02:12:38;101086.66;;;-7.60;100.00
21240;BME280;10778;48.962;9.018;2023-02-10T02:15:14;101085.91;;;-7.54;100.00
21240;BME280;10778;48.962;9.018;2023-02-10T02:37:38;101090.06;;;-7.61;100.00
21240;BME280;10778;48.962;9.018;2023-02-10T02:40:03;101093.50;;;-7.59;100.00
21240;BME280;10778;48.962;9.018;2023-02-10T02:42:32;101097.78;;;-7.59;100.00
21240;BME280;10778;48.962;9.018;2023-02-10T02:45:11;101100.25;;;-7.64;100.00
21240;BME280;10778;48.962;9.018;2023-02-10T02:47:44;101100.25;;;-7.64;100.00
21240;BME280;10778;48.962;9.018;2023-02-10T03:01:21;101093.38;;;-7.66;100.00
21240;BME280;10778;48.962;9.018;2023-02-10T03:03:52;101096.75;;;-7.69;100.00
21240;BME280;10778;48.962;9.018;2023-02-10T03:06:19;101101.88;;;-7.69;100.00
21240;BME280;10778;48.962;9.018;2023-02-10T03:08:45;101099.28;;;-7.71;100.00
21240;BME280;10778;48.962;9.018;2023-02-10T03:11:12;101101.03;;;-7.66;100.00
21240;BME280;10778;48.962;9.018;2023-02-10T03:13:38;101103.50;;;-7.71;100.00
21240;BME280;10778;48.962;9.018;2023-02-10T03:16:04;101105.19;;;-7.73;100.00
21240;BME280;10778;48.962;9.018;2023-02-10T03:18:30;101107.81;;;-7.70;100.00
21240;BME280;10778;48.962;9.018;2023-02-10T03:20:56;101110.22;;;-7.76;100.00
21240;BME280;10778;48.962;9.018;2023-02-10T03:23:23;101099.88;;;-7.84;100.00
21240;BME280;10778;48.962;9.018;2023-02-10T03:25:49;101108.22;;;-7.93;100.00
21240;BME280;10778;48.962;9.018;2023-02-10T03:28:15;101109.16;;;-7.88;100.00
21240;BME280;10778;48.962;9.018;2023-02-10T03:30:41;101110.00;;;-7.90;100.00
21240;BME280;10778;48.962;9.018;2023-02-10T03:33:16;101119.28;;;-7.94;100.00
21240;BME280;10778;48.962;9.018;2023-02-10T03:35:43;101112.41;;;-7.98;100.00
21240;BME280;10778;48.962;9.018;2023-02-10T03:38:10;101118.28;;;-8.02;100.00
21240;BME280;10778;48.962;9.018;2023-02-10T03:40:36;101123.34;;;-8.04;100.00
21240;BME280;10778;48.962;9.018;2023-02-10T03:43:02;101117.38;;;-8.06;100.00
21240;BME280;10778;48.962;9.018;2023-02-10T03:45:29;101118.28;;;-8.02;100.00
21240;BME280;10778;48.962;9.018;2023-02-10T03:47:55;101120.84;;;-8.02;100.00
21240;BME280;10778;48.962;9.018;2023-02-10T03:50:21;101123.34;;;-8.04;100.00
21240;BME280;10778;48.962;9.018;2023-02-10T03:52:47;101124.03;;;-8.12;100.00
21240;BME280;10778;48.962;9.018;2023-02-10T03:55:13;101136.66;;;-8.20;100.00
21240;BME280;10778;48.962;9.018;2023-02-10T03:57:43;101123.09;;;-8.16;100.00
21240;BME280;10778;48.962;9.018;2023-02-10T04:00:10;101135.91;;;-8.15;100.00
21240;BME280;10778;48.962;9.018;2023-02-10T04:02:40;101128.34;;;-8.10;100.00
21240;BME280;10778;48.962;9.018;2023-02-10T04:05:06;101133.47;;;-8.08;100.00
21240;BME280;10778;48.962;9.018;2023-02-10T04:07:33;101130.03;;;-8.10;100.00
21240;BME280;10778;48.962;9.018;2023-02-10T04:09:59;101128.16;;;-8.21;100.00
21240;BME280;10778;48.962;9.018;2023-02-10T04:12:25;101128.94;;;-8.22;100.00
21240;BME280;10778;48.962;9.018;2023-02-10T04:14:51;101130.72;;;-8.19;100.00
21240;BME280;10778;48.962;9.018;2023-02-10T04:17:17;101128.09;;;-8.22;100.00
21240;BME280;10778;48.962;9.018;2023-02-10T04:19:43;101115.44;;;-8.16;100.00
21240;BME280;10778;48.962;9.018;2023-02-10T04:22:09;101129.09;;;-8.16;100.00
21240;BME280;10778;48.962;9.018;2023-02-10T04:24:35;101128.91;;;-8.25;100.00
21240;BME280;10778;48.962;9.018;2023-02-10T04:27:01;101126.38;;;-8.23;100.00
21240;BME280;10778;48.962;9.018;2023-02-10T04:29:27;101125.44;;;-8.27;100.00
21240;BME280;10778;48.962;9.018;2023-02-10T04:31:53;101127.94;;;-8.30;100.00
21240;BME280;10778;48.962;9.018;2023-02-10T04:34:19;101128.03;;;-8.25;100.00
21240;BME280;10778;48.962;9.018;2023-02-10T04:36:46;101130.38;;;-8.36;100.00
21240;BME280;10778;48.962;9.018;2023-02-10T04:39:12;101130.41;;;-8.35;100.00
21240;BME280;10778;48.962;9.018;2023-02-10T04:41:38;101136.47;;;-8.30;100.00
21240;BME280;10778;48.962;9.018;2023-02-10T04:44:04;101139.84;;;-8.31;100.00
21240;BME280;10778;48.962;9.018;2023-02-10T04:46:31;101135.56;;;-8.33;100.00
21240;BME280;10778;48.962;9.018;2023-02-10T04:48:57;101144.03;;;-8.34;100.00
21240;BME280;10778;48.962;9.018;2023-02-10T04:51:23;101142.38;;;-8.31;100.00
21240;BME280;10778;48.962;9.018;2023-02-10T04:53:49;101141.44;;;-8.37;100.00
21240;BME280;10778;48.962;9.018;2023-02-10T04:56:16;101144.88;;;-8.34;100.00
21240;BME280;10778;48.962;9.018;2023-02-10T04:58:42;101148.09;;;-8.43;100.00
21240;BME280;10778;48.962;9.018;2023-02-10T05:01:08;101147.28;;;-8.42;100.00
21240;BME280;10778;48.962;9.018;2023-02-10T05:03:34;101145.75;;;-8.33;100.00
21240;BME280;10778;48.962;9.018;2023-02-10T05:06:08;101156.06;;;-8.29;100.00
21240;BME280;10778;48.962;9.018;2023-02-10T05:08:35;101157.72;;;-8.31;100.00
21240;BME280;10778;48.962;9.018;2023-02-10T05:11:04;101158.53;;;-8.32;100.00
21240;BME280;10778;48.962;9.018;2023-02-10T05:13:30;101163.75;;;-8.29;100.00
21240;BME280;10778;48.962;9.018;2023-02-10T05:15:56;101162.06;;;-8.26;100.00
21240;BME280;10778;48.962;9.018;2023-02-10T05:18:22;101157.75;;;-8.29;100.00
21240;BME280;10778;48.962;9.018;2023-02-10T05:20:48;101155.88;;;-8.38;100.00
21240;BME280;10778;48.962;9.018;2023-02-10T05:23:14;101161.81;;;-8.39;100.00
21240;BME280;10778;48.962;9.018;2023-02-10T05:25:40;101159.03;;;-8.48;100.00
21240;BME280;10778;48.962;9.018;2023-02-10T05:28:06;101167.47;;;-8.54;100.00
21240;BME280;10778;48.962;9.018;2023-02-10T05:30:32;101175.19;;;-8.51;100.00
21240;BME280;10778;48.962;9.018;2023-02-10T05:32:58;101177.78;;;-8.48;100.00
21240;BME280;10778;48.962;9.018;2023-02-10T05:35:24;101177.75;;;-8.51;100.00
21240;BME280;10778;48.962;9.018;2023-02-10T05:37:50;101185.25;;;-8.57;100.00
21240;BME280;10778;48.962;9.018;2023-02-10T05:40:16;101184.38;;;-8.59;100.00
21240;BME280;10778;48.962;9.018;2023-02-10T05:42:42;101186.28;;;-8.49;100.00
21240;BME280;10778;48.962;9.018;2023-02-10T05:45:08;101179.84;;;-8.31;100.00
21240;BME280;10778;48.962;9.018;2023-02-10T05:47:34;101171.94;;;-4.84;100.00
21240;BME280;10778;48.962;9.018;2023-02-10T05:50:00;101171.69;;;-5.16;100.00
21240;BME280;10778;48.962;9.018;2023-02-10T05:52:26;101186.94;;;-6.15;100.00
21240;BME280;10778;48.962;9.018;2023-02-10T05:54:52;101180.53;;;-5.75;100.00
21240;BME280;10778;48.962;9.018;2023-02-10T05:57:18;101183.19;;;-4.65;100.00
21240;BME280;10778;48.962;9.018;2023-02-10T05:59:44;101187.88;;;-5.23;93.98
21240;BME280;10778;48.962;9.018;2023-02-10T06:02:10;101188.75;;;-3.84;92.92
21240;BME280;10778;48.962;9.018;2023-02-10T06:04:36;101199.75;;;-4.20;86.58
21240;BME280;10778;48.962;9.018;2023-02-10T06:07:02;101210.06;;;-5.28;81.58
21240;BME280;10778;48.962;9.018;2023-02-10T06:09:29;101212.34;;;-6.30;85.15
21240;BME280;10778;48.962;9.018;2023-02-10T06:11:55;101219.16;;;-6.86;86.98
21240;BME280;10778;48.962;9.018;2023-02-10T06:14:22;101223.47;;;-7.34;90.55
21240;BME280;10778;48.962;9.018;2023-02-10T06:16:47;101230.59;;;-7.64;92.73
21240;BME280;10778;48.962;9.018;2023-02-10T06:19:14;101234.63;;;-7.77;94.15
21240;BME280;10778;48.962;9.018;2023-02-10T06:21:40;101240.25;;;-7.92;95.02
21240;BME280;10778;48.962;9.018;2023-02-10T06:24:06;101237.31;;;-8.10;95.20
21240;BME280;10778;48.962;9.018;2023-02-10T06:26:32;101248.91;;;-8.26;95.10
21240;BME280;10778;48.962;9.018;2023-02-10T06:28:58;101248.66;;;-8.37;96.78
21240;BME280;10778;48.962;9.018;2023-02-10T06:31:24;101253.72;;;-8.39;98.37
21240;BME280;10778;48.962;9.018;2023-02-10T06:33:51;101252.94;;;-8.36;98.25
21240;BME280;10778;48.962;9.018;2023-02-10T06:36:17;101253.72;;;-8.39;99.08
21240;BME280;10778;48.962;9.018;2023-02-10T06:38:43;101250.28;;;-8.39;100.00
21240;BME280;10778;48.962;9.018;2023-02-10T06:41:09;101248.59;;;-8.39;99.65
21240;BME280;10778;48.962;9.018;2023-02-10T06:43:35;101254.38;;;-8.48;99.18
21240;BME280;10778;48.962;9.018;2023-02-10T06:46:01;101257.75;;;-8.49;99.42
21240;BME280;10778;48.962;9.018;2023-02-10T06:48:27;101258.63;;;-8.47;100.00
21240;BME280;10778;48.962;9.018;2023-02-10T06:50:53;101257.66;;;-8.53;99.74
21240;BME280;10778;48.962;9.018;2023-02-10T06:53:19;101261.94;;;-8.52;100.00
21240;BME280;10778;48.962;9.018;2023-02-10T06:55:45;101264.63;;;-8.46;100.00
21240;BME280;10778;48.962;9.018;2023-02-10T06:58:11;101266.41;;;-8.42;100.00
21240;BME280;10778;48.962;9.018;2023-02-10T07:00:38;101263.84;;;-8.42;100.00
21240;BME280;10778;48.962;9.018;2023-02-10T07:03:04;101264.22;;;-8.26;100.00
21240;BME280;10778;48.962;9.018;2023-02-10T07:05:30;101267.00;;;-8.16;100.00
21240;BME280;10778;48.962;9.018;2023-02-10T07:07:57;101267.41;;;-7.97;100.00
21240;BME280;10778;48.962;9.018;2023-02-10T07:10:25;101259.00;;;-7.91;99.38
21240;BME280;10778;48.962;9.018;2023-02-10T07:12:51;101263.63;;;-7.75;98.02
21240;BME280;10778;48.962;9.018;2023-02-10T07:15:17;101267.19;;;-7.66;97.53
21240;BME280;10778;48.962;9.018;2023-02-10T07:17:45;101275.00;;;-7.59;96.35
21240;BME280;10778;48.962;9.018;2023-02-10T07:20:11;101267.75;;;-7.37;96.04
21240;BME280;10778;48.962;9.018;2023-02-10T07:22:37;101270.28;;;-6.38;92.37
21240;BME280;10778;48.962;9.018;2023-02-10T07:25:04;101264.69;;;-5.40;86.61
21240;BME280;10778;48.962;9.018;2023-02-10T07:27:30;101261.13;;;-4.68;81.39
21240;BME280;10778;48.962;9.018;2023-02-10T07:29:56;101262.94;;;-4.53;80.16
21240;BME280;10778;48.962;9.018;2023-02-10T07:32:22;101267.50;;;-4.10;79.56
21240;BME280;10778;48.962;9.018;2023-02-10T07:34:48;101264.28;;;-3.67;77.13
21240;BME280;10778;48.962;9.018;2023-02-10T07:37:15;101268.66;;;-3.43;75.63
21240;BME280;10778;48.962;9.018;2023-02-10T07:39:41;101260.16;;;-3.09;73.71
21240;BME280;10778;48.962;9.018;2023-02-10T07:42:07;101263.63;;;-2.76;72.74
21240;BME280;10778;48.962;9.018;2023-02-10T07:44:52;101249.84;;;-2.23;70.24
21240;BME280;10778;48.962;9.018;2023-02-10T07:47:18;101242.81;;;-1.73;69.43
21240;BME280;10778;48.962;9.018;2023-02-10T07:49:44;101242.50;;;-1.16;66.65
21240;BME280;10778;48.962;9.018;2023-02-10T07:52:10;101243.34;;;-1.07;65.82
21240;BME280;10778;48.962;9.018;2023-02-10T07:54:36;101253.94;;;-1.57;68.71
21240;BME280;10778;48.962;9.018;2023-02-10T07:57:02;101260.03;;;-1.83;68.25
21240;BME280;10778;48.962;9.018;2023-02-10T07:59:28;101252.66;;;-0.88;67.21
21240;BME280;10778;48.962;9.018;2023-02-10T08:01:54;101264.38;;;-1.83;68.67
21240;BME280;10778;48.962;9.018;2023-02-10T08:04:20;101263.28;;;-1.28;67.91
21240;BME280;10778;48.962;9.018;2023-02-10T08:06:46;101261.34;;;-0.98;66.11
21240;BME280;10778;48.962;9.018;2023-02-10T08:09:12;101261.34;;;-0.98;67.28
21240;BME280;10778;48.962;9.018;2023-02-10T08:11:41;101257.81;;;0.08;66.62
21240;BME280;10778;48.962;9.018;2023-02-10T08:14:07;101262.69;;;1.00;62.35
21240;BME280;10778;48.962;9.018;2023-02-10T08:16:33;101263.31;;;0.53;62.77
21240;BME280;10778;48.962;9.018;2023-02-10T08:18:59;101263.84;;;0.79;62.46
21240;BME280;10778;48.962;9.018;2023-02-10T08:21:25;101267.66;;;0.53;61.44
21240;BME280;10778;48.962;9.018;2023-02-10T08:23:52;101264.59;;;0.85;62.11
21240;BME280;10778;48.962;9.018;2023-02-10T08:26:21;101264.50;;;1.98;59.17
21240;BME280;10778;48.962;9.018;2023-02-10T08:28:48;101260.63;;;2.61;57.80
21240;BME280;10778;48.962;9.018;2023-02-10T08:31:15;101265.31;;;1.99;59.69
21240;BME280;10778;48.962;9.018;2023-02-10T08:33:41;101254.06;;;3.21;57.48
21240;BME280;10778;48.962;9.018;2023-02-10T08:36:10;101259.16;;;3.61;56.03
21240;BME280;10778;48.962;9.018;2023-02-10T08:38:37;101263.69;;;3.18;57.42
21240;BME280;10778;48.962;9.018;2023-02-10T08:41:04;101263.53;;;3.24;56.84
21240;BME280;10778;48.962;9.018;2023-02-10T08:43:31;101256.06;;;3.46;56.74
21240;BME280;10778;48.962;9.018;2023-02-10T08:45:58;101244.94;;;4.36;54.41
21240;BME280;10778;48.962;9.018;2023-02-10T08:48:25;101252.69;;;3.76;55.24
21240;BME280;10778;48.962;9.018;2023-02-10T08:50:52;101259.00;;;4.00;55.69
21240;BME280;10778;48.962;9.018;2023-02-10T08:53:19;101241.16;;;4.48;55.02
21240;BME280;10778;48.962;9.018;2023-02-10T08:55:58;101247.44;;;4.69;54.67
21240;BME280;10778;48.962;9.018;2023-02-10T08:58:25;101241.28;;;4.43;54.94
21240;BME280;10778;48.962;9.018;2023-02-10T09:00:51;101256.56;;;4.55;54.91
21240;BME280;10778;48.962;9.018;2023-02-10T09:03:17;101260.44;;;4.42;55.47
21240;BME280;10778;48.962;9.018;2023-02-10T09:05:43;101260.84;;;4.28;55.11
21240;BME280;10778;48.962;9.018;2023-02-10T09:08:15;101256.84;;;5.03;54.59
21240;BME280;10778;48.962;9.018;2023-02-10T09:10:42;101272.69;;;4.97;55.38
21240;BME280;10778;48.962;9.018;2023-02-10T09:13:09;101271.50;;;5.07;54.84
21240;BME280;10778;48.962;9.018;2023-02-10T09:15:40;101270.75;;;5.04;55.02
21240;BME280;10778;48.962;9.018;2023-02-10T09:18:08;101271.25;;;4.28;57.81
21240;BME280;10778;48.962;9.018;2023-02-10T09:20:35;101265.09;;;5.45;56.71
21240;BME280;10778;48.962;9.018;2023-02-10T09:23:01;101273.19;;;5.37;53.96
21240;BME280;10778;48.962;9.018;2023-02-10T09:25:27;101269.09;;;5.80;55.25
21240;BME280;10778;48.962;9.018;2023-02-10T09:27:54;101267.38;;;6.30;52.27
21240;BME280;10778;48.962;9.018;2023-02-10T09:30:24;101269.66;;;6.39;53.28
21240;BME280;10778;48.962;9.018;2023-02-10T09:32:50;101261.75;;;6.87;52.58
21240;BME280;10778;48.962;9.018;2023-02-10T09:35:17;101261.00;;;7.28;51.34
21240;BME280;10778;48.962;9.018;2023-02-10T09:37:43;101251.28;;;7.73;52.13
21240;BME280;10778;48.962;9.018;2023-02-10T09:40:23;101261.84;;;6.38;53.38
21240;BME280;10778;48.962;9.018;2023-02-10T09:43:25;101252.25;;;7.07;53.13
21240;BME280;10778;48.962;9.018;2023-02-10T09:46:01;101251.03;;;7.78;51.19
21240;BME280;10778;48.962;9.018;2023-02-10T09:49:02;101244.38;;;7.29;52.40
21240;BME280;10778;48.962;9.018;2023-02-10T09:54:17;101243.38;;;7.52;52.11
21240;BME280;10778;48.962;9.018;2023-02-10T09:56:43;101248.28;;;8.02;51.66
21240;BME280;10778;48.962;9.018;2023-02-10T09:59:15;101248.75;;;7.91;51.44
21240;BME280;10778;48.962;9.018;2023-02-10T10:01:46;101259.03;;;7.33;52.71
21240;BME280;10778;48.962;9.018;2023-02-10T10:04:19;101249.53;;;7.31;54.24
21240;BME280;10778;48.962;9.018;2023-02-10T10:06:54;101259.91;;;7.75;54.28
21240;BME280;10778;48.962;9.018;2023-02-10T10:12:00;101263.09;;;6.04;56.95
21240;BME280;10778;48.962;9.018;2023-02-10T10:14:31;101272.72;;;5.51;59.43
21240;BME280;10778;48.962;9.018;2023-02-10T10:27:43;101281.47;;;6.02;57.87
21240;BME280;10778;48.962;9.018;2023-02-10T10:30:18;101272.75;;;6.95;56.25
21240;BME280;10778;48.962;9.018;2023-02-10T10:32:51;101268.22;;;7.85;53.76
21240;BME280;10778;48.962;9.018;2023-02-10T10:35:24;101264.19;;;8.37;52.74
21240;BME280;10778;48.962;9.018;2023-02-10T10:37:51;101263.03;;;6.99;55.88
21240;BME280;10778;48.962;9.018;2023-02-10T10:40:22;101269.72;;;5.62;59.57
21240;BME280;10778;48.962;9.018;2023-02-10T10:42:52;101251.66;;;7.00;55.91
21240;BME280;10778;48.962;9.018;2023-02-10T10:45:28;101256.63;;;7.91;54.24
21240;BME280;10778;48.962;9.018;2023-02-10T10:48:08;101250.09;;;6.72;55.89
21240;BME280;10778;48.962;9.018;2023-02-10T10:50:35;101264.09;;;6.00;58.19
21240;BME280;10778;48.962;9.018;2023-02-10T10:53:11;101263.84;;;6.55;56.54
21240;BME280;10778;48.962;9.018;2023-02-10T10:55:53;101261.44;;;6.49;55.13
21240;BME280;10778;48.962;9.018;2023-02-10T10:58:25;101256.88;;;6.08;55.62
21240;BME280;10778;48.962;9.018;2023-02-10T11:00:54;101259.47;;;6.55;54.91
21240;BME280;10778;48.962;9.018;2023-02-10T11:03:21;101252.94;;;7.33;51.19
21240;BME280;10778;48.962;9.018;2023-02-10T11:08:26;101242.00;;;7.44;52.23
21240;BME280;10778;48.962;9.018;2023-02-10T11:10:58;101252.88;;;6.91;51.81
21240;BME280;10778;48.962;9.018;2023-02-10T11:13:28;101247.38;;;6.75;51.55
21240;BME280;10778;48.962;9.018;2023-02-10T11:16:03;101236.84;;;7.63;50.80
21240;BME280;10778;48.962;9.018;2023-02-10T11:18:30;101233.50;;;7.59;51.40
21240;BME280;10778;48.962;9.018;2023-02-10T11:21:06;101242.34;;;6.71;54.46
21240;BME280;10778;48.962;9.018;2023-02-10T11:23:36;101239.91;;;7.10;52.75
21240;BME280;10778;48.962;9.018;2023-02-10T11:26:05;101240.56;;;7.16;51.99
21240;BME280;10778;48.962;9.018;2023-02-10T11:28:34;101243.88;;;6.52;53.42
21240;BME280;10778;48.962;9.018;2023-02-10T11:31:06;101240.53;;;6.49;54.02
21240;BME280;10778;48.962;9.018;2023-02-10T11:33:41;101233.31;;;7.22;52.62
21240;BME280;10778;48.962;9.018;2023-02-10T11:36:09;101228.41;;;7.35;50.45
21240;BME280;10778;48.962;9.018;2023-02-10T11:38:44;101233.59;;;7.37;51.35
21240;BME280;10778;48.962;9.018;2023-02-10T11:41:10;101232.72;;;6.93;52.83
21240;BME280;10778;48.962;9.018;2023-02-10T11:43:46;101229.78;;;6.57;53.52
21240;BME280;10778;48.962;9.018;2023-02-10T11:46:24;101233.63;;;6.70;53.36
21240;BME280;10778;48.962;9.018;2023-02-10T11:48:54;101226.31;;;7.01;54.07
21240;BME280;10778;48.962;9.018;2023-02-10T11:51:21;101226.53;;;6.96;52.93
21240;BME280;10778;48.962;9.018;2023-02-10T11:53:48;101225.16;;;7.08;53.08
21240;BME280;10778;48.962;9.018;2023-02-10T11:56:23;101215.16;;;7.38;51.33
21240;BME280;10778;48.962;9.018;2023-02-10T11:59:19;101217.44;;;6.60;52.95
21240;BME280;10778;48.962;9.018;2023-02-10T12:02:15;101213.06;;;6.61;54.84
21240;BME280;10778;48.962;9.018;2023-02-10T12:10:20;101216.34;;;6.88;52.85
21240;BME280;10778;48.962;9.018;2023-02-10T12:18:20;101196.81;;;6.97;52.67
21240;BME280;10778;48.962;9.018;2023-02-10T12:32:15;101188.72;;;6.59;54.36
21240;BME280;10778;48.962;9.018;2023-02-10T12:35:03;101172.66;;;7.52;51.97
21240;BME280;10778;48.962;9.018;2023-02-10T12:43:15;101171.75;;;8.51;49.55
21240;BME280;10778;48.962;9.018;2023-02-10T12:45:56;101165.66;;;8.12;50.25
21240;BME280;10778;48.962;9.018;2023-02-10T12:48:34;101163.91;;;8.13;49.97
21240;BME280;10778;48.962;9.018;2023-02-10T12:53:45;101164.53;;;8.18;49.92
21240;BME280;10778;48.962;9.018;2023-02-10T12:56:45;101164.22;;;8.43;50.37
21240;BME280;10778;48.962;9.018;2023-02-10T12:59:23;101154.50;;;8.45;48.72
21240;BME280;10778;48.962;9.018;2023-02-10T13:04:31;101164.59;;;7.97;50.22
21240;BME280;10778;48.962;9.018;2023-02-10T13:07:05;101153.41;;;8.32;50.31
21240;BME280;10778;48.962;9.018;2023-02-10T13:12:25;101149.13;;;8.48;49.40
21240;BME280;10778;48.962;9.018;2023-02-10T13:15:01;101150.41;;;8.59;49.24
21240;BME280;10778;48.962;9.018;2023-02-10T13:17:41;101143.16;;;8.64;50.75
21240;BME280;10778;48.962;9.018;2023-02-10T13:20:22;101156.66;;;7.79;50.89
21240;BME280;10778;48.962;9.018;2023-02-10T13:25:29;101145.50;;;8.14;51.56
21240;BME280;10778;48.962;9.018;2023-02-10T13:28:20;101148.69;;;8.38;50.37
21240;BME280;10778;48.962;9.018;2023-02-10T13:33:33;101142.19;;;8.84;48.22
21240;BME280;10778;48.962;9.018;2023-02-10T13:36:09;101139.16;;;8.74;49.09
21240;BME280;10778;48.962;9.018;2023-02-10T13:38:38;101139.31;;;8.71;48.61
21240;BME280;10778;48.962;9.018;2023-02-10T13:41:04;101147.44;;;8.28;49.42
21240;BME280;10778;48.962;9.018;2023-02-10T13:43:56;101142.25;;;8.46;48.92
21240;BME280;10778;48.962;9.018;2023-02-10T13:46:27;101141.34;;;8.28;48.10
21240;BME280;10778;48.962;9.018;2023-02-10T13:48:57;101143.31;;;8.61;47.90
21240;BME280;10778;48.962;9.018;2023-02-10T13:51:35;101142.22;;;8.09;47.80
21240;BME280;10778;48.962;9.018;2023-02-10T13:54:03;101145.19;;;8.20;47.85
21240;BME280;10778;48.962;9.018;2023-02-10T13:56:31;101142.00;;;8.33;47.60
21240;BME280;10778;48.962;9.018;2023-02-10T13:59:04;101141.44;;;8.07;48.21
21240;BME280;10778;48.962;9.018;2023-02-10T14:01:36;101140.44;;;8.09;48.50
21240;BME280;10778;48.962;9.018;2023-02-10T14:04:05;101146.66;;;7.68;48.35
21240;BME280;10778;48.962;9.018;2023-02-10T14:06:39;101142.88;;;7.55;48.89
21240;BME280;10778;48.962;9.018;2023-02-10T14:13:19;101138.97;;;8.04;47.08
21240;BME280;10778;48.962;9.018;2023-02-10T14:16:00;101143.00;;;7.52;47.49
21240;BME280;10778;48.962;9.018;2023-02-10T14:18:35;101146.97;;;7.21;48.25
21240;BME280;10778;48.962;9.018;2023-02-10T14:21:13;101142.38;;;7.47;48.40
21240;BME280;10778;48.962;9.018;2023-02-10T14:23:42;101138.47;;;7.76;47.70
21240;BME280;10778;48.962;9.018;2023-02-10T14:26:16;101140.78;;;7.82;47.65
21240;BME280;10778;48.962;9.018;2023-02-10T14:28:53;101137.66;;;7.93;47.29
21240;BME280;10778;48.962;9.018;2023-02-10T14:31:35;101138.34;;;7.59;48.58
21240;BME280;10778;48.962;9.018;2023-02-10T14:34:16;101135.84;;;7.76;47.74
21240;BME280;10778;48.962;9.018;2023-02-10T14:37:12;101130.03;;;7.89;47.67
21240;BME280;10778;48.962;9.018;2023-02-10T14:39:39;101132.09;;;7.82;48.94